sensor_id;sensor_type;location;lat;lon;timestamp;temperature;humidity
4501;DHT22;2263;54.654;9.410;2023-05-10T00:01:25;17.00;61.50
4501;DHT22;2263;54.654;9.410;2023-05-10T00:03:52;17.00;61.90
4501;DHT22;2263;54.654;9.410;2023-05-10T00:06:20;17.00;61.30
4501;DHT22;2263;54.654;9.410;2023-05-10T00:08:48;17.00;61.50
4501;DHT22;2263;54.654;9.410;2023-05-10T00:11:15;16.90;61.50
4501;DHT22;2263;54.654;9.410;2023-05-10T00:13:43;16.90;61.60
4501;DHT22;2263;54.654;9.410;2023-05-10T00:16:10;16.90;61.80
4501;DHT22;2263;54.654;9.410;2023-05-10T00:18:40;16.90;61.90
4501;DHT22;2263;54.654;9.410;2023-05-10T00:21:07;16.90;61.80
4501;DHT22;2263;54.654;9.410;2023-05-10T00:23:35;16.80;61.80
4501;DHT22;2263;54.654;9.410;2023-05-10T00:26:02;16.80;61.90
4501;DHT22;2263;54.654;9.410;2023-05-10T00:28:30;16.80;61.80
4501;DHT22;2263;54.654;9.410;2023-05-10T00:30:57;16.90;61.90
4501;DHT22;2263;54.654;9.410;2023-05-10T00:33:25;16.80;61.90
4501;DHT22;2263;54.654;9.410;2023-05-10T00:35:53;16.80;62.10
4501;DHT22;2263;54.654;9.410;2023-05-10T00:38:20;16.80;61.90
4501;DHT22;2263;54.654;9.410;2023-05-10T00:40:48;16.80;62.10
4501;DHT22;2263;54.654;9.410;2023-05-10T00:43:15;16.80;61.90
4501;DHT22;2263;54.654;9.410;2023-05-10T00:45:43;16.70;62.10
4501;DHT22;2263;54.654;9.410;2023-05-10T00:48:11;16.80;62.20
4501;DHT22;2263;54.654;9.410;2023-05-10T00:50:39;16.70;62.20
4501;DHT22;2263;54.654;9.410;2023-05-10T00:53:07;16.70;62.50
4501;DHT22;2263;54.654;9.410;2023-05-10T00:55:36;16.70;62.10
4501;DHT22;2263;54.654;9.410;2023-05-10T00:58:05;16.70;62.50
4501;DHT22;2263;54.654;9.410;2023-05-10T01:00:33;16.70;62.60
4501;DHT22;2263;54.654;9.410;2023-05-10T01:03:01;16.70;62.50
4501;DHT22;2263;54.654;9.410;2023-05-10T01:05:31;16.70;62.50
4501;DHT22;2263;54.654;9.410;2023-05-10T01:07:59;16.60;62.30
4501;DHT22;2263;54.654;9.410;2023-05-10T01:10:27;16.60;62.30
4501;DHT22;2263;54.654;9.410;2023-05-10T01:12:54;16.60;62.30
4501;DHT22;2263;54.654;9.410;2023-05-10T01:15:23;16.60;62.20
4501;DHT22;2263;54.654;9.410;2023-05-10T01:17:51;16.60;62.30
4501;DHT22;2263;54.654;9.410;2023-05-10T01:20:19;16.50;62.30
4501;DHT22;2263;54.654;9.410;2023-05-10T01:37:40;16.50;62.60
4501;DHT22;2263;54.654;9.410;2023-05-10T01:40:32;16.50;62.70
4501;DHT22;2263;54.654;9.410;2023-05-10T01:43:03;16.40;62.60
4501;DHT22;2263;54.654;9.410;2023-05-10T01:48:05;16.40;62.60
4501;DHT22;2263;54.654;9.410;2023-05-10T01:50:36;16.40;62.70
4501;DHT22;2263;54.654;9.410;2023-05-10T01:53:08;16.40;62.60
4501;DHT22;2263;54.654;9.410;2023-05-10T01:55:44;16.40;62.50
4501;DHT22;2263;54.654;9.410;2023-05-10T01:58:22;16.30;62.70
4501;DHT22;2263;54.654;9.410;2023-05-10T02:00:51;16.30;62.60
4501;DHT22;2263;54.654;9.410;2023-05-10T02:03:23;16.30;62.80
4501;DHT22;2263;54.654;9.410;2023-05-10T02:05:52;16.30;62.80
4501;DHT22;2263;54.654;9.410;2023-05-10T02:08:22;16.30;62.80
4501;DHT22;2263;54.654;9.410;2023-05-10T02:10:52;16.20;62.80
4501;DHT22;2263;54.654;9.410;2023-05-10T02:13:21;16.20;62.80
4501;DHT22;2263;54.654;9.410;2023-05-10T02:15:51;16.20;62.70
4501;DHT22;2263;54.654;9.410;2023-05-10T02:18:21;16.20;62.70
4501;DHT22;2263;54.654;9.410;2023-05-10T02:20:50;16.10;62.70
4501;DHT22;2263;54.654;9.410;2023-05-10T02:23:20;16.10;62.60
4501;DHT22;2263;54.654;9.410;2023-05-10T02:25:49;16.10;62.60
4501;DHT22;2263;54.654;9.410;2023-05-10T02:28:19;16.10;62.80
4501;DHT22;2263;54.654;9.410;2023-05-10T02:30:49;16.10;62.80
4501;DHT22;2263;54.654;9.410;2023-05-10T02:33:18;16.10;62.80
4501;DHT22;2263;54.654;9.410;2023-05-10T02:35:50;16.00;62.60
4501;DHT22;2263;54.654;9.410;2023-05-10T02:38:20;16.00;62.90
4501;DHT22;2263;54.654;9.410;2023-05-10T02:40:49;16.00;62.70
4501;DHT22;2263;54.654;9.410;2023-05-10T02:43:18;16.00;63.50
4501;DHT22;2263;54.654;9.410;2023-05-10T02:45:47;16.00;62.70
4501;DHT22;2263;54.654;9.410;2023-05-10T02:48:15;16.00;62.70
4501;DHT22;2263;54.654;9.410;2023-05-10T02:50:44;16.00;63.00
4501;DHT22;2263;54.654;9.410;2023-05-10T02:53:16;15.90;62.80
4501;DHT22;2263;54.654;9.410;2023-05-10T02:55:50;15.90;62.90
4501;DHT22;2263;54.654;9.410;2023-05-10T02:58:18;15.90;62.90
4501;DHT22;2263;54.654;9.410;2023-05-10T03:00:46;15.90;62.90
4501;DHT22;2263;54.654;9.410;2023-05-10T03:03:14;15.90;62.80
4501;DHT22;2263;54.654;9.410;2023-05-10T03:05:41;15.90;63.00
4501;DHT22;2263;54.654;9.410;2023-05-10T03:08:09;15.90;63.20
4501;DHT22;2263;54.654;9.410;2023-05-10T03:10:41;15.90;63.10
4501;DHT22;2263;54.654;9.410;2023-05-10T03:13:32;15.80;62.90
4501;DHT22;2263;54.654;9.410;2023-05-10T03:16:15;15.80;62.90
4501;DHT22;2263;54.654;9.410;2023-05-10T03:21:50;15.80;63.10
4501;DHT22;2263;54.654;9.410;2023-05-10T03:24:22;15.70;63.00
4501;DHT22;2263;54.654;9.410;2023-05-10T03:26:52;15.70;63.10
4501;DHT22;2263;54.654;9.410;2023-05-10T03:29:21;15.70;63.10
4501;DHT22;2263;54.654;9.410;2023-05-10T03:31:49;15.70;63.10
4501;DHT22;2263;54.654;9.410;2023-05-10T03:34:22;15.60;63.10
4501;DHT22;2263;54.654;9.410;2023-05-10T03:36:50;15.60;63.20
4501;DHT22;2263;54.654;9.410;2023-05-10T03:39:17;15.60;63.20
4501;DHT22;2263;54.654;9.410;2023-05-10T03:41:45;15.60;63.90
4501;DHT22;2263;54.654;9.410;2023-05-10T03:44:13;15.60;63.40
4501;DHT22;2263;54.654;9.410;2023-05-10T03:46:40;15.60;63.20
4501;DHT22;2263;54.654;9.410;2023-05-10T03:49:08;15.60;63.30
4501;DHT22;2263;54.654;9.410;2023-05-10T03:51:36;15.50;63.10
4501;DHT22;2263;54.654;9.410;2023-05-10T03:54:03;15.50;63.40
4501;DHT22;2263;54.654;9.410;2023-05-10T03:56:31;15.50;63.40
4501;DHT22;2263;54.654;9.410;2023-05-10T03:58:59;15.50;63.20
4501;DHT22;2263;54.654;9.410;2023-05-10T04:01:27;15.50;63.50
4501;DHT22;2263;54.654;9.410;2023-05-10T04:03:55;15.50;63.30
4501;DHT22;2263;54.654;9.410;2023-05-10T04:06:22;15.50;63.50
4501;DHT22;2263;54.654;9.410;2023-05-10T04:08:50;15.50;63.50
4501;DHT22;2263;54.654;9.410;2023-05-10T04:11:18;15.50;63.70
4501;DHT22;2263;54.654;9.410;2023-05-10T04:13:45;15.40;63.70
4501;DHT22;2263;54.654;9.410;2023-05-10T04:16:13;15.40;63.70
4501;DHT22;2263;54.654;9.410;2023-05-10T04:18:40;15.40;63.70
4501;DHT22;2263;54.654;9.410;2023-05-10T04:21:14;15.40;63.70
4501;DHT22;2263;54.654;9.410;2023-05-10T04:23:41;15.40;64.30
4501;DHT22;2263;54.654;9.410;2023-05-10T04:26:09;15.40;63.60
4501;DHT22;2263;54.654;9.410;2023-05-10T04:28:39;15.20;63.80
4501;DHT22;2263;54.654;9.410;2023-05-10T04:31:09;15.20;64.20
4501;DHT22;2263;54.654;9.410;2023-05-10T04:33:37;15.20;64.20
4501;DHT22;2263;54.654;9.410;2023-05-10T04:36:05;15.20;64.40
4501;DHT22;2263;54.654;9.410;2023-05-10T04:38:32;15.20;64.40
4501;DHT22;2263;54.654;9.410;2023-05-10T04:41:10;15.20;64.50
4501;DHT22;2263;54.654;9.410;2023-05-10T04:43:38;15.20;64.50
4501;DHT22;2263;54.654;9.410;2023-05-10T04:46:06;15.20;64.70
4501;DHT22;2263;54.654;9.410;2023-05-10T04:48:34;15.20;64.60
4501;DHT22;2263;54.654;9.410;2023-05-10T04:51:02;15.20;64.90
4501;DHT22;2263;54.654;9.410;2023-05-10T04:53:31;15.20;64.80
4501;DHT22;2263;54.654;9.410;2023-05-10T04:55:58;15.20;65.50
4501;DHT22;2263;54.654;9.410;2023-05-10T04:58:26;15.20;65.60
4501;DHT22;2263;54.654;9.410;2023-05-10T05:00:53;15.20;65.00
4501;DHT22;2263;54.654;9.410;2023-05-10T05:03:21;15.20;65.00
4501;DHT22;2263;54.654;9.410;2023-05-10T05:05:49;15.10;65.00
4501;DHT22;2263;54.654;9.410;2023-05-10T05:08:17;15.10;65.00
4501;DHT22;2263;54.654;9.410;2023-05-10T05:10:44;15.10;65.00
4501;DHT22;2263;54.654;9.410;2023-05-10T05:13:12;15.10;65.10
4501;DHT22;2263;54.654;9.410;2023-05-10T05:15:40;15.10;65.10
4501;DHT22;2263;54.654;9.410;2023-05-10T05:18:08;15.10;65.20
4501;DHT22;2263;54.654;9.410;2023-05-10T05:20:35;15.10;65.30
4501;DHT22;2263;54.654;9.410;2023-05-10T05:23:03;15.10;65.40
4501;DHT22;2263;54.654;9.410;2023-05-10T05:25:30;15.10;65.40
4501;DHT22;2263;54.654;9.410;2023-05-10T05:27:58;15.10;65.70
4501;DHT22;2263;54.654;9.410;2023-05-10T05:30:25;15.10;65.70
4501;DHT22;2263;54.654;9.410;2023-05-10T05:32:53;15.10;65.80
4501;DHT22;2263;54.654;9.410;2023-05-10T05:35:20;15.00;65.80
4501;DHT22;2263;54.654;9.410;2023-05-10T05:37:48;15.10;65.90
4501;DHT22;2263;54.654;9.410;2023-05-10T05:40:16;15.10;66.20
4501;DHT22;2263;54.654;9.410;2023-05-10T05:42:43;15.10;66.00
4501;DHT22;2263;54.654;9.410;2023-05-10T05:45:11;15.10;66.20
4501;DHT22;2263;54.654;9.410;2023-05-10T05:47:40;15.10;66.30
4501;DHT22;2263;54.654;9.410;2023-05-10T05:50:08;15.10;66.40
4501;DHT22;2263;54.654;9.410;2023-05-10T05:52:36;15.10;66.30
4501;DHT22;2263;54.654;9.410;2023-05-10T05:55:07;15.00;66.20
4501;DHT22;2263;54.654;9.410;2023-05-10T05:57:35;15.00;66.40
4501;DHT22;2263;54.654;9.410;2023-05-10T06:00:03;15.00;66.50
4501;DHT22;2263;54.654;9.410;2023-05-10T06:02:30;15.10;66.80
4501;DHT22;2263;54.654;9.410;2023-05-10T06:04:58;15.00;66.60
4501;DHT22;2263;54.654;9.410;2023-05-10T06:07:25;15.00;66.70
4501;DHT22;2263;54.654;9.410;2023-05-10T06:09:53;15.10;66.80
4501;DHT22;2263;54.654;9.410;2023-05-10T06:12:21;15.10;67.10
4501;DHT22;2263;54.654;9.410;2023-05-10T06:14:48;15.10;67.20
4501;DHT22;2263;54.654;9.410;2023-05-10T06:17:16;15.10;67.30
4501;DHT22;2263;54.654;9.410;2023-05-10T06:19:43;15.10;67.20
4501;DHT22;2263;54.654;9.410;2023-05-10T06:22:11;15.10;67.00
4501;DHT22;2263;54.654;9.410;2023-05-10T06:24:38;15.20;67.40
4501;DHT22;2263;54.654;9.410;2023-05-10T06:27:06;15.20;67.40
4501;DHT22;2263;54.654;9.410;2023-05-10T06:29:34;15.20;67.60
4501;DHT22;2263;54.654;9.410;2023-05-10T06:32:01;15.20;67.60
4501;DHT22;2263;54.654;9.410;2023-05-10T06:34:29;15.20;67.40
4501;DHT22;2263;54.654;9.410;2023-05-10T06:36:56;15.20;67.30
4501;DHT22;2263;54.654;9.410;2023-05-10T06:39:24;15.30;67.60
4501;DHT22;2263;54.654;9.410;2023-05-10T06:41:52;15.30;67.50
4501;DHT22;2263;54.654;9.410;2023-05-10T06:44:19;15.30;67.50
4501;DHT22;2263;54.654;9.410;2023-05-10T06:46:47;15.30;67.60
4501;DHT22;2263;54.654;9.410;2023-05-10T06:49:15;15.30;67.60
4501;DHT22;2263;54.654;9.410;2023-05-10T06:51:42;15.30;67.60
4501;DHT22;2263;54.654;9.410;2023-05-10T06:54:10;15.40;67.60
4501;DHT22;2263;54.654;9.410;2023-05-10T06:56:37;15.40;67.70
4501;DHT22;2263;54.654;9.410;2023-05-10T06:59:05;15.40;67.60
4501;DHT22;2263;54.654;9.410;2023-05-10T07:01:33;15.40;67.60
4501;DHT22;2263;54.654;9.410;2023-05-10T07:04:00;15.40;67.70
4501;DHT22;2263;54.654;9.410;2023-05-10T07:06:28;15.40;67.70
4501;DHT22;2263;54.654;9.410;2023-05-10T07:09:00;15.50;67.70
4501;DHT22;2263;54.654;9.410;2023-05-10T07:11:28;15.50;67.60
4501;DHT22;2263;54.654;9.410;2023-05-10T07:13:55;15.50;67.70
4501;DHT22;2263;54.654;9.410;2023-05-10T07:16:23;15.50;67.70
4501;DHT22;2263;54.654;9.410;2023-05-10T07:18:50;15.60;68.00
4501;DHT22;2263;54.654;9.410;2023-05-10T07:21:20;15.60;68.10
4501;DHT22;2263;54.654;9.410;2023-05-10T07:23:48;15.60;68.10
4501;DHT22;2263;54.654;9.410;2023-05-10T07:26:16;15.70;68.10
4501;DHT22;2263;54.654;9.410;2023-05-10T07:28:43;15.70;68.10
4501;DHT22;2263;54.654;9.410;2023-05-10T07:31:11;15.70;68.20
4501;DHT22;2263;54.654;9.410;2023-05-10T07:33:38;15.70;68.10
4501;DHT22;2263;54.654;9.410;2023-05-10T07:36:06;15.70;68.20
4501;DHT22;2263;54.654;9.410;2023-05-10T07:38:34;15.80;68.30
4501;DHT22;2263;54.654;9.410;2023-05-10T07:41:01;15.80;68.30
4501;DHT22;2263;54.654;9.410;2023-05-10T07:43:29;15.80;68.40
4501;DHT22;2263;54.654;9.410;2023-05-10T07:45:56;15.80;68.50
4501;DHT22;2263;54.654;9.410;2023-05-10T07:48:25;15.80;68.40
4501;DHT22;2263;54.654;9.410;2023-05-10T07:50:55;15.80;68.50
4501;DHT22;2263;54.654;9.410;2023-05-10T07:53:22;15.80;68.50
4501;DHT22;2263;54.654;9.410;2023-05-10T07:55:51;15.80;69.00
4501;DHT22;2263;54.654;9.410;2023-05-10T07:58:18;15.90;68.50
4501;DHT22;2263;54.654;9.410;2023-05-10T08:00:49;15.90;68.50
4501;DHT22;2263;54.654;9.410;2023-05-10T08:03:16;15.90;68.40
4501;DHT22;2263;54.654;9.410;2023-05-10T08:05:44;16.00;68.50
4501;DHT22;2263;54.654;9.410;2023-05-10T08:08:12;16.00;68.50
4501;DHT22;2263;54.654;9.410;2023-05-10T08:10:39;16.00;68.60
4501;DHT22;2263;54.654;9.410;2023-05-10T08:13:07;16.00;68.50
4501;DHT22;2263;54.654;9.410;2023-05-10T08:15:34;16.00;68.50
4501;DHT22;2263;54.654;9.410;2023-05-10T08:18:02;16.00;68.50
4501;DHT22;2263;54.654;9.410;2023-05-10T08:20:29;16.00;68.40
4501;DHT22;2263;54.654;9.410;2023-05-10T08:22:57;16.00;68.50
4501;DHT22;2263;54.654;9.410;2023-05-10T08:25:25;16.00;68.60
4501;DHT22;2263;54.654;9.410;2023-05-10T08:27:52;16.00;68.60
4501;DHT22;2263;54.654;9.410;2023-05-10T08:30:20;16.10;68.80
4501;DHT22;2263;54.654;9.410;2023-05-10T08:32:48;16.10;68.80
4501;DHT22;2263;54.654;9.410;2023-05-10T08:35:15;16.10;68.90
4501;DHT22;2263;54.654;9.410;2023-05-10T08:37:43;16.10;68.90
4501;DHT22;2263;54.654;9.410;2023-05-10T08:40:11;16.20;69.00
4501;DHT22;2263;54.654;9.410;2023-05-10T08:42:42;16.20;69.00
4501;DHT22;2263;54.654;9.410;2023-05-10T08:45:10;16.30;69.10
4501;DHT22;2263;54.654;9.410;2023-05-10T08:47:39;16.30;69.10
4501;DHT22;2263;54.654;9.410;2023-05-10T08:50:07;16.30;69.20
4501;DHT22;2263;54.654;9.410;2023-05-10T08:52:38;16.30;69.20
4501;DHT22;2263;54.654;9.410;2023-05-10T08:55:07;16.40;69.30
4501;DHT22;2263;54.654;9.410;2023-05-10T08:57:36;16.40;69.30
4501;DHT22;2263;54.654;9.410;2023-05-10T09:00:04;16.40;69.20
4501;DHT22;2263;54.654;9.410;2023-05-10T09:02:31;16.40;69.20
4501;DHT22;2263;54.654;9.410;2023-05-10T09:04:59;16.40;69.30
4501;DHT22;2263;54.654;9.410;2023-05-10T09:07:27;16.40;69.30
4501;DHT22;2263;54.654;9.410;2023-05-10T09:09:55;16.40;69.40
4501;DHT22;2263;54.654;9.410;2023-05-10T09:12:23;16.40;69.30
4501;DHT22;2263;54.654;9.410;2023-05-10T09:14:55;16.40;69.30
4501;DHT22;2263;54.654;9.410;2023-05-10T09:17:24;16.50;69.40
4501;DHT22;2263;54.654;9.410;2023-05-10T09:20:02;16.50;69.40
4501;DHT22;2263;54.654;9.410;2023-05-10T09:22:31;16.50;69.40
4501;DHT22;2263;54.654;9.410;2023-05-10T09:25:09;16.50;69.40
4501;DHT22;2263;54.654;9.410;2023-05-10T09:27:40;16.50;69.50
4501;DHT22;2263;54.654;9.410;2023-05-10T09:30:08;16.50;69.50
4501;DHT22;2263;54.654;9.410;2023-05-10T09:32:47;16.50;69.60
4501;DHT22;2263;54.654;9.410;2023-05-10T09:35:18;16.50;69.60
4501;DHT22;2263;54.654;9.410;2023-05-10T09:37:48;16.50;69.70
4501;DHT22;2263;54.654;9.410;2023-05-10T09:40:21;16.50;69.60
4501;DHT22;2263;54.654;9.410;2023-05-10T09:42:57;16.50;69.60
4501;DHT22;2263;54.654;9.410;2023-05-10T09:45:27;16.50;69.70
4501;DHT22;2263;54.654;9.410;2023-05-10T09:47:55;16.50;69.70
4501;DHT22;2263;54.654;9.410;2023-05-10T09:50:23;16.50;69.80
4501;DHT22;2263;54.654;9.410;2023-05-10T09:52:57;16.50;69.70
4501;DHT22;2263;54.654;9.410;2023-05-10T09:55:38;16.50;70.00
4501;DHT22;2263;54.654;9.410;2023-05-10T09:58:07;16.50;70.00
4501;DHT22;2263;54.654;9.410;2023-05-10T10:00:40;16.50;69.80
4501;DHT22;2263;54.654;9.410;2023-05-10T10:03:15;16.50;69.80
4501;DHT22;2263;54.654;9.410;2023-05-10T10:05:43;16.50;69.90
4501;DHT22;2263;54.654;9.410;2023-05-10T10:08:15;16.50;69.90
4501;DHT22;2263;54.654;9.410;2023-05-10T10:10:43;16.50;69.80
4501;DHT22;2263;54.654;9.410;2023-05-10T10:13:14;16.60;69.90
4501;DHT22;2263;54.654;9.410;2023-05-10T10:15:42;16.50;69.90
4501;DHT22;2263;54.654;9.410;2023-05-10T10:18:13;16.60;69.90
4501;DHT22;2263;54.654;9.410;2023-05-10T10:20:43;16.50;69.80
4501;DHT22;2263;54.654;9.410;2023-05-10T10:23:10;16.50;69.80
4501;DHT22;2263;54.654;9.410;2023-05-10T10:25:38;16.50;69.90
4501;DHT22;2263;54.654;9.410;2023-05-10T10:28:26;16.50;69.90
4501;DHT22;2263;54.654;9.410;2023-05-10T10:31:03;16.50;69.80
4501;DHT22;2263;54.654;9.410;2023-05-10T10:34:05;16.50;69.90
4501;DHT22;2263;54.654;9.410;2023-05-10T10:36:45;16.50;70.00
4501;DHT22;2263;54.654;9.410;2023-05-10T10:39:13;16.50;69.90
4501;DHT22;2263;54.654;9.410;2023-05-10T10:41:51;16.50;70.00
4501;DHT22;2263;54.654;9.410;2023-05-10T10:47:22;16.50;70.30
4501;DHT22;2263;54.654;9.410;2023-05-10T10:50:05;16.50;70.20
4501;DHT22;2263;54.654;9.410;2023-05-10T10:52:38;16.50;70.30
4501;DHT22;2263;54.654;9.410;2023-05-10T10:55:14;16.50;70.40
4501;DHT22;2263;54.654;9.410;2023-05-10T10:57:53;16.50;70.30
4501;DHT22;2263;54.654;9.410;2023-05-10T11:03:01;16.50;70.30
4501;DHT22;2263;54.654;9.410;2023-05-10T11:08:08;16.60;70.50
4501;DHT22;2263;54.654;9.410;2023-05-10T11:10:36;16.60;70.50
4501;DHT22;2263;54.654;9.410;2023-05-10T11:13:05;16.60;70.50
4501;DHT22;2263;54.654;9.410;2023-05-10T11:15:38;16.60;70.50
4501;DHT22;2263;54.654;9.410;2023-05-10T11:18:20;16.60;70.60
4501;DHT22;2263;54.654;9.410;2023-05-10T11:21:01;16.60;71.20
4501;DHT22;2263;54.654;9.410;2023-05-10T11:23:48;16.50;70.50
4501;DHT22;2263;54.654;9.410;2023-05-10T11:26:16;16.60;70.70
4501;DHT22;2263;54.654;9.410;2023-05-10T11:28:48;16.70;70.80
4501;DHT22;2263;54.654;9.410;2023-05-10T11:31:17;16.80;70.60
4501;DHT22;2263;54.654;9.410;2023-05-10T11:33:50;17.00;70.50
4501;DHT22;2263;54.654;9.410;2023-05-10T11:36:20;17.20;70.30
4501;DHT22;2263;54.654;9.410;2023-05-10T11:38:48;17.30;70.30
4501;DHT22;2263;54.654;9.410;2023-05-10T11:41:18;17.40;70.20
4501;DHT22;2263;54.654;9.410;2023-05-10T11:43:46;17.40;69.90
4501;DHT22;2263;54.654;9.410;2023-05-10T11:46:18;17.50;70.00
4501;DHT22;2263;54.654;9.410;2023-05-10T11:48:52;17.50;69.90
4501;DHT22;2263;54.654;9.410;2023-05-10T11:51:21;17.60;70.00
4501;DHT22;2263;54.654;9.410;2023-05-10T11:53:54;17.60;69.90
4501;DHT22;2263;54.654;9.410;2023-05-10T11:56:22;17.60;70.00
4501;DHT22;2263;54.654;9.410;2023-05-10T11:58:57;17.70;70.20
4501;DHT22;2263;54.654;9.410;2023-05-10T12:01:25;17.70;70.20
4501;DHT22;2263;54.654;9.410;2023-05-10T12:03:55;17.80;70.50
4501;DHT22;2263;54.654;9.410;2023-05-10T12:06:27;17.70;70.50
4501;DHT22;2263;54.654;9.410;2023-05-10T12:08:56;17.80;70.80
4501;DHT22;2263;54.654;9.410;2023-05-10T12:11:27;17.80;71.00
4501;DHT22;2263;54.654;9.410;2023-05-10T12:13:56;17.80;71.10
4501;DHT22;2263;54.654;9.410;2023-05-10T12:16:25;17.80;71.20
4501;DHT22;2263;54.654;9.410;2023-05-10T12:19:00;17.80;71.30
4501;DHT22;2263;54.654;9.410;2023-05-10T12:21:29;17.80;71.50
4501;DHT22;2263;54.654;9.410;2023-05-10T12:24:04;17.80;71.50
4501;DHT22;2263;54.654;9.410;2023-05-10T12:26:32;17.90;71.60
4501;DHT22;2263;54.654;9.410;2023-05-10T12:29:13;17.90;71.80
4501;DHT22;2263;54.654;9.410;2023-05-10T12:31:55;17.90;71.90
4501;DHT22;2263;54.654;9.410;2023-05-10T12:34:27;18.00;72.10
4501;DHT22;2263;54.654;9.410;2023-05-10T12:36:57;17.90;72.20
4501;DHT22;2263;54.654;9.410;2023-05-10T12:39:25;18.00;72.50
4501;DHT22;2263;54.654;9.410;2023-05-10T12:41:53;18.00;72.60
4501;DHT22;2263;54.654;9.410;2023-05-10T12:44:21;17.90;72.60
4501;DHT22;2263;54.654;9.410;2023-05-10T12:46:48;18.00;72.80
4501;DHT22;2263;54.654;9.410;2023-05-10T12:49:16;18.00;73.00
4501;DHT22;2263;54.654;9.410;2023-05-10T12:51:46;18.00;73.30
4501;DHT22;2263;54.654;9.410;2023-05-10T12:54:13;18.00;73.40
4501;DHT22;2263;54.654;9.410;2023-05-10T12:56:41;18.00;73.50
4501;DHT22;2263;54.654;9.410;2023-05-10T12:59:09;18.00;73.60
4501;DHT22;2263;54.654;9.410;2023-05-10T13:01:37;18.00;73.60
4501;DHT22;2263;54.654;9.410;2023-05-10T13:04:05;17.90;73.60
4501;DHT22;2263;54.654;9.410;2023-05-10T13:06:32;18.00;73.70
4501;DHT22;2263;54.654;9.410;2023-05-10T13:09:00;18.00;73.70
4501;DHT22;2263;54.654;9.410;2023-05-10T13:11:28;18.00;73.80
4501;DHT22;2263;54.654;9.410;2023-05-10T13:13:55;18.00;73.90
4501;DHT22;2263;54.654;9.410;2023-05-10T13:16:23;18.00;74.10
4501;DHT22;2263;54.654;9.410;2023-05-10T13:18:50;18.00;74.20
4501;DHT22;2263;54.654;9.410;2023-05-10T13:21:18;18.00;74.20
4501;DHT22;2263;54.654;9.410;2023-05-10T13:23:45;18.00;74.30
4501;DHT22;2263;54.654;9.410;2023-05-10T13:26:13;18.10;74.40
4501;DHT22;2263;54.654;9.410;2023-05-10T13:28:41;18.00;74.40
4501;DHT22;2263;54.654;9.410;2023-05-10T13:31:09;18.10;74.50
4501;DHT22;2263;54.654;9.410;2023-05-10T13:33:37;18.00;74.40
4501;DHT22;2263;54.654;9.410;2023-05-10T13:36:05;18.00;74.40
4501;DHT22;2263;54.654;9.410;2023-05-10T13:38:34;18.00;74.40
4501;DHT22;2263;54.654;9.410;2023-05-10T13:41:01;18.00;74.40
4501;DHT22;2263;54.654;9.410;2023-05-10T13:43:29;18.00;74.50
4501;DHT22;2263;54.654;9.410;2023-05-10T13:45:57;18.00;74.50
4501;DHT22;2263;54.654;9.410;2023-05-10T13:48:24;17.90;74.40
4501;DHT22;2263;54.654;9.410;2023-05-10T13:50:52;18.00;74.50
4501;DHT22;2263;54.654;9.410;2023-05-10T13:53:19;18.00;74.50
4501;DHT22;2263;54.654;9.410;2023-05-10T13:55:48;17.90;74.50
4501;DHT22;2263;54.654;9.410;2023-05-10T13:58:15;18.00;74.60
4501;DHT22;2263;54.654;9.410;2023-05-10T14:00:44;17.90;74.60
4501;DHT22;2263;54.654;9.410;2023-05-10T14:03:12;17.90;74.70
4501;DHT22;2263;54.654;9.410;2023-05-10T14:05:40;17.90;74.60
4501;DHT22;2263;54.654;9.410;2023-05-10T14:08:08;17.90;74.80
4501;DHT22;2263;54.654;9.410;2023-05-10T14:10:37;17.90;74.70
4501;DHT22;2263;54.654;9.410;2023-05-10T14:13:05;18.00;74.90
4501;DHT22;2263;54.654;9.410;2023-05-10T14:15:33;17.90;74.80
4501;DHT22;2263;54.654;9.410;2023-05-10T14:18:00;17.90;75.50
4501;DHT22;2263;54.654;9.410;2023-05-10T14:20:28;17.90;74.90
4501;DHT22;2263;54.654;9.410;2023-05-10T14:22:56;17.90;75.00
4501;DHT22;2263;54.654;9.410;2023-05-10T14:25:24;17.90;75.00
4501;DHT22;2263;54.654;9.410;2023-05-10T14:27:52;18.00;75.10
4501;DHT22;2263;54.654;9.410;2023-05-10T14:30:21;17.90;75.00
4501;DHT22;2263;54.654;9.410;2023-05-10T14:32:49;17.90;75.00
4501;DHT22;2263;54.654;9.410;2023-05-10T14:35:17;17.90;75.10
4501;DHT22;2263;54.654;9.410;2023-05-10T14:37:46;17.90;75.20
4501;DHT22;2263;54.654;9.410;2023-05-10T14:40:13;18.00;75.40
4501;DHT22;2263;54.654;9.410;2023-05-10T14:42:42;18.00;75.50
4501;DHT22;2263;54.654;9.410;2023-05-10T14:45:10;18.00;75.50
4501;DHT22;2263;54.654;9.410;2023-05-10T14:47:39;18.00;75.70
4501;DHT22;2263;54.654;9.410;2023-05-10T14:50:07;18.00;75.60
4501;DHT22;2263;54.654;9.410;2023-05-10T14:52:35;17.90;75.60
4501;DHT22;2263;54.654;9.410;2023-05-10T14:55:04;18.00;75.80
4501;DHT22;2263;54.654;9.410;2023-05-10T14:57:32;18.00;75.70
4501;DHT22;2263;54.654;9.410;2023-05-10T15:00:01;18.00;75.70
4501;DHT22;2263;54.654;9.410;2023-05-10T15:02:30;18.00;75.80
4501;DHT22;2263;54.654;9.410;2023-05-10T15:04:59;18.00;75.80
4501;DHT22;2263;54.654;9.410;2023-05-10T15:07:27;17.90;75.80
4501;DHT22;2263;54.654;9.410;2023-05-10T15:09:54;18.00;75.90
4501;DHT22;2263;54.654;9.410;2023-05-10T15:12:22;18.00;76.00
4501;DHT22;2263;54.654;9.410;2023-05-10T15:14:49;18.00;76.00
4501;DHT22;2263;54.654;9.410;2023-05-10T15:17:17;17.90;75.90
4501;DHT22;2263;54.654;9.410;2023-05-10T15:19:44;17.90;75.90
4501;DHT22;2263;54.654;9.410;2023-05-10T15:22:12;17.90;75.90
4501;DHT22;2263;54.654;9.410;2023-05-10T15:24:40;17.90;75.90
4501;DHT22;2263;54.654;9.410;2023-05-10T15:27:07;17.90;76.00
4501;DHT22;2263;54.654;9.410;2023-05-10T15:29:35;17.90;76.00
4501;DHT22;2263;54.654;9.410;2023-05-10T15:32:03;17.90;76.10
4501;DHT22;2263;54.654;9.410;2023-05-10T15:34:31;17.80;76.00
4501;DHT22;2263;54.654;9.410;2023-05-10T15:37:01;17.90;76.20
4501;DHT22;2263;54.654;9.410;2023-05-10T15:39:29;17.80;76.20
4501;DHT22;2263;54.654;9.410;2023-05-10T15:41:57;17.80;76.20
4501;DHT22;2263;54.654;9.410;2023-05-10T15:44:24;17.80;76.20
4501;DHT22;2263;54.654;9.410;2023-05-10T15:46:52;17.80;76.20
4501;DHT22;2263;54.654;9.410;2023-05-10T15:49:20;17.80;76.20
4501;DHT22;2263;54.654;9.410;2023-05-10T15:51:47;17.80;76.10
4501;DHT22;2263;54.654;9.410;2023-05-10T15:54:15;17.80;76.20
4501;DHT22;2263;54.654;9.410;2023-05-10T15:56:43;17.80;76.20
4501;DHT22;2263;54.654;9.410;2023-05-10T15:59:10;17.80;76.20
4501;DHT22;2263;54.654;9.410;2023-05-10T16:01:38;17.80;76.30
4501;DHT22;2263;54.654;9.410;2023-05-10T16:04:05;17.80;76.60
4501;DHT22;2263;54.654;9.410;2023-05-10T16:06:34;17.80;76.50
4501;DHT22;2263;54.654;9.410;2023-05-10T16:09:02;17.80;76.80
4501;DHT22;2263;54.654;9.410;2023-05-10T16:11:29;17.80;76.80
4501;DHT22;2263;54.654;9.410;2023-05-10T16:13:57;17.70;76.90
4501;DHT22;2263;54.654;9.410;2023-05-10T16:16:25;17.70;77.00
4501;DHT22;2263;54.654;9.410;2023-05-10T16:18:52;17.80;77.20
4501;DHT22;2263;54.654;9.410;2023-05-10T16:21:20;17.80;77.30
4501;DHT22;2263;54.654;9.410;2023-05-10T16:23:48;17.70;77.10
4501;DHT22;2263;54.654;9.410;2023-05-10T16:26:16;17.70;77.30
4501;DHT22;2263;54.654;9.410;2023-05-10T16:28:43;17.70;77.20
4501;DHT22;2263;54.654;9.410;2023-05-10T16:31:11;17.70;77.30
4501;DHT22;2263;54.654;9.410;2023-05-10T16:33:39;17.70;77.40
4501;DHT22;2263;54.654;9.410;2023-05-10T16:36:06;17.70;77.20
4501;DHT22;2263;54.654;9.410;2023-05-10T16:38:34;17.70;77.30
4501;DHT22;2263;54.654;9.410;2023-05-10T16:41:02;17.70;77.60
4501;DHT22;2263;54.654;9.410;2023-05-10T16:43:31;17.70;77.50